sensor_id;sensor_type;location;lat;lon;timestamp;pressure;altitude;pressure_sealevel;temperature;humidity
31595;BME280;18200;48.726;8.892;2023-06-24T00:03:48;97623.94;;;29.36;32.53
31595;BME280;18200;48.726;8.892;2023-06-24T00:07:48;97636.22;;;29.35;34.11
31595;BME280;18200;48.726;8.892;2023-06-24T00:11:49;97637.25;;;30.13;31.58
31595;BME280;18200;48.726;8.892;2023-06-24T00:15:49;97641.25;;;29.85;32.54
31595;BME280;18200;48.726;8.892;2023-06-24T00:19:49;97630.81;;;29.22;33.66
31595;BME280;18200;48.726;8.892;2023-06-24T00:23:50;97632.28;;;29.05;32.82
31595;BME280;18200;48.726;8.892;2023-06-24T00:27:50;97627.34;;;29.49;33.08
31595;BME280;18200;48.726;8.892;2023-06-24T00:31:51;97630.31;;;29.90;32.35
31595;BME280;18200;48.726;8.892;2023-06-24T00:35:51;97635.09;;;29.90;31.98
31595;BME280;18200;48.726;8.892;2023-06-24T00:39:52;97633.09;;;30.36;32.04
31595;BME280;18200;48.726;8.892;2023-06-24T00:43:52;97631.81;;;30.55;30.77
31595;BME280;18200;48.726;8.892;2023-06-24T00:47:52;97622.00;;;30.87;30.09
31595;BME280;18200;48.726;8.892;2023-06-24T00:51:54;97623.31;;;30.58;30.38
31595;BME280;18200;48.726;8.892;2023-06-24T00:55:57;97623.09;;;29.93;31.15
31595;BME280;18200;48.726;8.892;2023-06-24T01:00:03;97624.94;;;30.32;30.34
31595;BME280;18200;48.726;8.892;2023-06-24T01:04:09;97617.22;;;29.82;31.98
31595;BME280;18200;48.726;8.892;2023-06-24T01:08:09;97625.81;;;30.29;30.66
31595;BME280;18200;48.726;8.892;2023-06-24T01:12:15;97626.44;;;29.70;30.49
31595;BME280;18200;48.726;8.892;2023-06-24T01:20:49;97627.66;;;29.69;31.88
31595;BME280;18200;48.726;8.892;2023-06-24T01:29:31;97621.06;;;29.08;31.16
31595;BME280;18200;48.726;8.892;2023-06-24T01:33:52;97619.47;;;28.89;33.27
31595;BME280;18200;48.726;8.892;2023-06-24T01:37:55;97621.31;;;28.83;33.11
31595;BME280;18200;48.726;8.892;2023-06-24T01:42:03;97614.09;;;29.44;31.48
31595;BME280;18200;48.726;8.892;2023-06-24T01:46:05;97615.56;;;28.47;33.36
31595;BME280;18200;48.726;8.892;2023-06-24T01:50:08;97610.69;;;28.29;33.76
31595;BME280;18200;48.726;8.892;2023-06-24T01:54:11;97613.06;;;28.40;32.88
31595;BME280;18200;48.726;8.892;2023-06-24T01:58:15;97621.72;;;28.73;33.19
31595;BME280;18200;48.726;8.892;2023-06-24T02:02:17;97612.06;;;28.56;33.27
31595;BME280;18200;48.726;8.892;2023-06-24T02:06:20;97615.19;;;28.36;33.63
31595;BME280;18200;48.726;8.892;2023-06-24T02:10:23;97610.53;;;28.85;32.17
31595;BME280;18200;48.726;8.892;2023-06-24T02:14:26;97612.13;;;27.44;34.53
31595;BME280;18200;48.726;8.892;2023-06-24T02:18:27;97611.97;;;28.16;33.76
31595;BME280;18200;48.726;8.892;2023-06-24T02:22:28;97613.50;;;28.60;33.25
31595;BME280;18200;48.726;8.892;2023-06-24T02:26:29;97606.94;;;28.45;34.06
31595;BME280;18200;48.726;8.892;2023-06-24T02:30:31;97605.94;;;28.30;33.72
31595;BME280;18200;48.726;8.892;2023-06-24T02:34:31;97604.78;;;27.97;34.40
31595;BME280;18200;48.726;8.892;2023-06-24T02:38:34;97605.38;;;27.32;34.72
31595;BME280;18200;48.726;8.892;2023-06-24T02:42:34;97600.09;;;27.50;34.56
31595;BME280;18200;48.726;8.892;2023-06-24T02:46:36;97605.31;;;27.36;35.11
31595;BME280;18200;48.726;8.892;2023-06-24T02:50:37;97602.16;;;27.59;34.53
31595;BME280;18200;48.726;8.892;2023-06-24T02:54:42;97609.63;;;27.93;34.03
31595;BME280;18200;48.726;8.892;2023-06-24T02:59:02;97607.13;;;27.86;33.89
31595;BME280;18200;48.726;8.892;2023-06-24T03:03:04;97612.69;;;27.26;35.25
31595;BME280;18200;48.726;8.892;2023-06-24T03:07:06;97610.09;;;27.10;34.82
31595;BME280;18200;48.726;8.892;2023-06-24T03:11:12;97608.41;;;27.38;33.65
31595;BME280;18200;48.726;8.892;2023-06-24T03:15:13;97604.34;;;26.92;35.63
31595;BME280;18200;48.726;8.892;2023-06-24T03:19:14;97605.09;;;27.18;35.44
31595;BME280;18200;48.726;8.892;2023-06-24T03:23:15;97606.69;;;26.94;35.35
31595;BME280;18200;48.726;8.892;2023-06-24T03:27:17;97609.25;;;27.47;34.84
31595;BME280;18200;48.726;8.892;2023-06-24T03:31:18;97616.78;;;27.22;35.16
31595;BME280;18200;48.726;8.892;2023-06-24T03:35:19;97627.06;;;27.21;35.00
31595;BME280;18200;48.726;8.892;2023-06-24T03:39:19;97636.88;;;26.18;36.70
31595;BME280;18200;48.726;8.892;2023-06-24T03:43:20;97640.09;;;26.70;36.42
31595;BME280;18200;48.726;8.892;2023-06-24T03:47:21;97635.00;;;26.69;36.15
31595;BME280;18200;48.726;8.892;2023-06-24T03:51:21;97639.44;;;26.79;35.36
31595;BME280;18200;48.726;8.892;2023-06-24T03:55:21;97645.16;;;26.72;35.68
31595;BME280;18200;48.726;8.892;2023-06-24T03:59:22;97635.09;;;27.53;35.49
31595;BME280;18200;48.726;8.892;2023-06-24T04:03:23;97635.34;;;28.46;32.84
31595;BME280;18200;48.726;8.892;2023-06-24T04:07:25;97644.16;;;28.53;32.77
31595;BME280;18200;48.726;8.892;2023-06-24T04:11:31;97655.03;;;28.69;32.48
31595;BME280;18200;48.726;8.892;2023-06-24T04:15:33;97662.50;;;28.38;33.14
31595;BME280;18200;48.726;8.892;2023-06-24T04:19:34;97662.75;;;28.53;32.95
31595;BME280;18200;48.726;8.892;2023-06-24T04:23:34;97662.13;;;28.70;32.97
31595;BME280;18200;48.726;8.892;2023-06-24T04:27:35;97667.09;;;28.84;32.39
31595;BME280;18200;48.726;8.892;2023-06-24T04:31:36;97669.72;;;28.57;32.95
31595;BME280;18200;48.726;8.892;2023-06-24T04:35:37;97668.84;;;28.69;32.61
31595;BME280;18200;48.726;8.892;2023-06-24T04:39:38;97677.66;;;28.55;33.02
31595;BME280;18200;48.726;8.892;2023-06-24T04:43:39;97676.00;;;28.14;33.90
31595;BME280;18200;48.726;8.892;2023-06-24T04:47:39;97677.09;;;27.83;33.92
31595;BME280;18200;48.726;8.892;2023-06-24T04:51:40;97672.38;;;27.58;34.96
31595;BME280;18200;48.726;8.892;2023-06-24T04:55:41;97674.53;;;27.41;34.88
31595;BME280;18200;48.726;8.892;2023-06-24T04:59:41;97680.66;;;27.71;34.92
31595;BME280;18200;48.726;8.892;2023-06-24T05:03:42;97671.41;;;27.99;33.99
31595;BME280;18200;48.726;8.892;2023-06-24T05:07:42;97669.94;;;28.50;33.86
31595;BME280;18200;48.726;8.892;2023-06-24T05:11:42;97675.34;;;28.10;34.25
31595;BME280;18200;48.726;8.892;2023-06-24T05:15:43;97674.63;;;27.97;34.93
31595;BME280;18200;48.726;8.892;2023-06-24T05:19:43;97676.78;;;28.15;34.60
31595;BME280;18200;48.726;8.892;2023-06-24T05:23:44;97689.66;;;27.84;35.47
31595;BME280;18200;48.726;8.892;2023-06-24T05:27:44;97687.88;;;28.24;35.58
31595;BME280;18200;48.726;8.892;2023-06-24T05:31:44;97688.91;;;28.39;34.62
31595;BME280;18200;48.726;8.892;2023-06-24T05:35:46;97687.41;;;28.90;34.42
31595;BME280;18200;48.726;8.892;2023-06-24T05:39:47;97686.56;;;29.11;34.56
31595;BME280;18200;48.726;8.892;2023-06-24T05:43:47;97694.06;;;29.24;33.61
31595;BME280;18200;48.726;8.892;2023-06-24T05:47:47;97695.34;;;29.50;34.56
31595;BME280;18200;48.726;8.892;2023-06-24T05:51:48;97691.75;;;30.52;32.21
31595;BME280;18200;48.726;8.892;2023-06-24T05:55:49;97686.41;;;31.09;31.43
31595;BME280;18200;48.726;8.892;2023-06-24T05:59:49;97686.88;;;31.40;31.04
31595;BME280;18200;48.726;8.892;2023-06-24T06:03:49;97685.53;;;31.59;30.48
31595;BME280;18200;48.726;8.892;2023-06-24T06:07:50;97685.50;;;31.68;30.65
31595;BME280;18200;48.726;8.892;2023-06-24T06:11:50;97701.44;;;31.82;30.08
31595;BME280;18200;48.726;8.892;2023-06-24T06:15:50;97689.53;;;32.44;29.58
31595;BME280;18200;48.726;8.892;2023-06-24T06:19:51;97691.28;;;32.41;29.49
31595;BME280;18200;48.726;8.892;2023-06-24T06:23:51;97687.09;;;32.60;29.39
31595;BME280;18200;48.726;8.892;2023-06-24T06:27:51;97686.88;;;32.93;29.34
31595;BME280;18200;48.726;8.892;2023-06-24T06:31:52;97687.66;;;33.08;28.90
31595;BME280;18200;48.726;8.892;2023-06-24T06:35:53;97685.38;;;33.07;29.06
31595;BME280;18200;48.726;8.892;2023-06-24T06:39:53;97683.34;;;33.07;29.00
31595;BME280;18200;48.726;8.892;2023-06-24T06:43:53;97672.03;;;33.45;28.29
31595;BME280;18200;48.726;8.892;2023-06-24T06:47:54;97674.69;;;33.54;27.93
31595;BME280;18200;48.726;8.892;2023-06-24T06:51:54;97672.06;;;34.26;27.43
31595;BME280;18200;48.726;8.892;2023-06-24T06:55:55;97666.91;;;34.45;26.79
31595;BME280;18200;48.726;8.892;2023-06-24T06:59:56;97671.72;;;34.64;26.13
31595;BME280;18200;48.726;8.892;2023-06-24T07:03:56;97662.53;;;34.58;26.56
31595;BME280;18200;48.726;8.892;2023-06-24T07:07:57;97679.25;;;35.15;25.59
31595;BME280;18200;48.726;8.892;2023-06-24T07:11:57;97674.03;;;34.46;25.90
31595;BME280;18200;48.726;8.892;2023-06-24T07:15:57;97677.44;;;34.81;25.13
31595;BME280;18200;48.726;8.892;2023-06-24T07:19:58;97677.16;;;35.41;24.26
31595;BME280;18200;48.726;8.892;2023-06-24T07:23:58;97669.72;;;34.70;24.83
31595;BME280;18200;48.726;8.892;2023-06-24T07:27:58;97672.53;;;35.33;24.64
31595;BME280;18200;48.726;8.892;2023-06-24T07:31:59;97680.13;;;36.22;24.27
31595;BME280;18200;48.726;8.892;2023-06-24T07:35:59;97673.53;;;36.36;22.97
31595;BME280;18200;48.726;8.892;2023-06-24T07:39:59;97676.97;;;35.50;23.55
31595;BME280;18200;48.726;8.892;2023-06-24T07:44:00;97676.03;;;36.23;22.86
31595;BME280;18200;48.726;8.892;2023-06-24T07:48:00;97672.28;;;35.73;23.48
31595;BME280;18200;48.726;8.892;2023-06-24T07:52:00;97668.75;;;36.70;22.54
31595;BME280;18200;48.726;8.892;2023-06-24T07:56:01;97672.34;;;36.71;21.95
31595;BME280;18200;48.726;8.892;2023-06-24T08:00:02;97670.44;;;35.22;23.29
31595;BME280;18200;48.726;8.892;2023-06-24T08:04:14;97670.38;;;35.48;23.88
31595;BME280;18200;48.726;8.892;2023-06-24T08:08:15;97665.13;;;35.72;23.36
31595;BME280;18200;48.726;8.892;2023-06-24T08:12:15;97658.81;;;36.52;22.87
31595;BME280;18200;48.726;8.892;2023-06-24T08:16:17;97672.38;;;35.47;23.93
31595;BME280;18200;48.726;8.892;2023-06-24T08:20:22;97661.72;;;35.51;23.82
31595;BME280;18200;48.726;8.892;2023-06-24T08:24:23;97660.00;;;36.18;23.00
31595;BME280;18200;48.726;8.892;2023-06-24T08:28:24;97662.03;;;36.18;23.38
31595;BME280;18200;48.726;8.892;2023-06-24T08:32:24;97653.72;;;37.23;22.09
31595;BME280;18200;48.726;8.892;2023-06-24T08:36:26;97652.16;;;37.55;22.23
31595;BME280;18200;48.726;8.892;2023-06-24T08:40:27;97651.94;;;36.59;22.43
31595;BME280;18200;48.726;8.892;2023-06-24T08:44:28;97657.34;;;35.93;21.96
31595;BME280;18200;48.726;8.892;2023-06-24T08:48:29;97652.22;;;36.78;21.81
31595;BME280;18200;48.726;8.892;2023-06-24T08:52:32;97654.19;;;38.23;20.00
31595;BME280;18200;48.726;8.892;2023-06-24T08:56:34;97659.34;;;37.23;19.99
31595;BME280;18200;48.726;8.892;2023-06-24T09:00:35;97655.28;;;36.69;20.77
31595;BME280;18200;48.726;8.892;2023-06-24T09:04:35;97646.16;;;37.97;19.26
31595;BME280;18200;48.726;8.892;2023-06-24T09:08:36;97647.56;;;36.30;21.43
31595;BME280;18200;48.726;8.892;2023-06-24T09:12:39;97646.47;;;37.88;20.02
31595;BME280;18200;48.726;8.892;2023-06-24T09:16:39;97644.94;;;37.87;19.43
31595;BME280;18200;48.726;8.892;2023-06-24T09:20:41;97639.84;;;37.80;20.05
31595;BME280;18200;48.726;8.892;2023-06-24T09:24:46;97634.31;;;37.58;19.87
31595;BME280;18200;48.726;8.892;2023-06-24T09:28:48;97628.22;;;36.38;21.29
31595;BME280;18200;48.726;8.892;2023-06-24T09:32:49;97623.44;;;36.77;20.25
31595;BME280;18200;48.726;8.892;2023-06-24T09:36:52;97614.25;;;36.66;21.13
31595;BME280;18200;48.726;8.892;2023-06-24T09:41:01;97613.22;;;38.44;19.38
31595;BME280;18200;48.726;8.892;2023-06-24T09:45:05;97609.47;;;38.66;19.05
31595;BME280;18200;48.726;8.892;2023-06-24T09:49:06;97614.16;;;37.60;19.44
31595;BME280;18200;48.726;8.892;2023-06-24T09:53:06;97603.22;;;38.49;19.50
31595;BME280;18200;48.726;8.892;2023-06-24T09:57:07;97608.59;;;38.52;19.20
31595;BME280;18200;48.726;8.892;2023-06-24T10:01:09;97608.84;;;39.08;18.52
31595;BME280;18200;48.726;8.892;2023-06-24T10:05:10;97602.16;;;39.17;18.45
31595;BME280;18200;48.726;8.892;2023-06-24T10:09:11;97599.38;;;38.52;18.96
31595;BME280;18200;48.726;8.892;2023-06-24T10:13:13;97605.91;;;38.30;19.15
31595;BME280;18200;48.726;8.892;2023-06-24T10:17:14;97591.19;;;37.67;19.85
31595;BME280;18200;48.726;8.892;2023-06-24T10:21:15;97587.69;;;39.31;17.84
31595;BME280;18200;48.726;8.892;2023-06-24T10:25:15;97591.19;;;38.54;18.56
31595;BME280;18200;48.726;8.892;2023-06-24T10:29:16;97589.22;;;39.57;17.58
31595;BME280;18200;48.726;8.892;2023-06-24T10:33:17;97583.81;;;39.59;16.74
31595;BME280;18200;48.726;8.892;2023-06-24T10:37:23;97575.56;;;38.29;18.17
31595;BME280;18200;48.726;8.892;2023-06-24T10:41:25;97569.44;;;38.90;17.74
31595;BME280;18200;48.726;8.892;2023-06-24T10:45:25;97553.63;;;38.22;18.48
31595;BME280;18200;48.726;8.892;2023-06-24T10:49:26;97538.66;;;36.54;18.37
31595;BME280;18200;48.726;8.892;2023-06-24T10:53:26;97553.38;;;39.57;16.81
31595;BME280;18200;48.726;8.892;2023-06-24T10:57:27;97555.13;;;38.28;17.18
31595;BME280;18200;48.726;8.892;2023-06-24T11:01:28;97552.97;;;39.47;15.36
31595;BME280;18200;48.726;8.892;2023-06-24T11:05:30;97543.31;;;40.81;15.44
31595;BME280;18200;48.726;8.892;2023-06-24T11:09:31;97531.66;;;41.03;15.37
31595;BME280;18200;48.726;8.892;2023-06-24T11:13:33;97537.63;;;40.86;14.96
31595;BME280;18200;48.726;8.892;2023-06-24T11:17:34;97538.53;;;41.34;14.39
31595;BME280;18200;48.726;8.892;2023-06-24T11:21:35;97529.78;;;40.79;15.40
31595;BME280;18200;48.726;8.892;2023-06-24T11:25:40;97516.81;;;38.31;17.08
31595;BME280;18200;48.726;8.892;2023-06-24T11:29:41;97523.41;;;39.97;15.78
31595;BME280;18200;48.726;8.892;2023-06-24T11:33:41;97519.25;;;37.69;17.76
31595;BME280;18200;48.726;8.892;2023-06-24T11:37:45;97520.38;;;38.91;16.70
31595;BME280;18200;48.726;8.892;2023-06-24T11:41:45;97514.63;;;40.95;14.79
31595;BME280;18200;48.726;8.892;2023-06-24T11:45:48;97498.16;;;40.99;14.32
31595;BME280;18200;48.726;8.892;2023-06-24T11:49:50;97503.88;;;39.86;15.12
31595;BME280;18200;48.726;8.892;2023-06-24T11:53:52;97498.97;;;39.06;16.32
31595;BME280;18200;48.726;8.892;2023-06-24T11:57:59;97481.53;;;41.22;15.64
31595;BME280;18200;48.726;8.892;2023-06-24T12:02:01;97483.06;;;41.83;14.77
31595;BME280;18200;48.726;8.892;2023-06-24T12:06:03;97483.22;;;40.60;15.38
31595;BME280;18200;48.726;8.892;2023-06-24T12:10:04;97474.63;;;42.66;14.41
31595;BME280;18200;48.726;8.892;2023-06-24T12:14:05;97474.03;;;42.18;13.99
31595;BME280;18200;48.726;8.892;2023-06-24T12:18:06;97464.25;;;41.52;14.37
31595;BME280;18200;48.726;8.892;2023-06-24T12:22:06;97465.06;;;38.21;16.21
31595;BME280;18200;48.726;8.892;2023-06-24T12:26:07;97459.31;;;40.92;14.98
31595;BME280;18200;48.726;8.892;2023-06-24T12:30:08;97457.09;;;40.72;14.02
31595;BME280;18200;48.726;8.892;2023-06-24T12:34:08;97450.47;;;39.24;16.09
31595;BME280;18200;48.726;8.892;2023-06-24T12:38:08;97441.28;;;40.69;14.84
31595;BME280;18200;48.726;8.892;2023-06-24T12:42:09;97434.94;;;41.55;14.51
31595;BME280;18200;48.726;8.892;2023-06-24T12:46:09;97427.66;;;38.37;17.31
31595;BME280;18200;48.726;8.892;2023-06-24T12:50:10;97432.50;;;42.55;14.18
31595;BME280;18200;48.726;8.892;2023-06-24T12:54:11;97430.00;;;39.80;15.90
31595;BME280;18200;48.726;8.892;2023-06-24T12:58:13;97423.94;;;40.91;14.69
31595;BME280;18200;48.726;8.892;2023-06-24T13:02:14;97415.06;;;39.10;15.69
31595;BME280;18200;48.726;8.892;2023-06-24T13:06:15;97414.59;;;40.70;14.16
31595;BME280;18200;48.726;8.892;2023-06-24T13:10:15;97420.63;;;43.12;13.04
31595;BME280;18200;48.726;8.892;2023-06-24T13:14:16;97413.63;;;41.67;13.94
31595;BME280;18200;48.726;8.892;2023-06-24T13:18:16;97405.50;;;41.17;14.87
31595;BME280;18200;48.726;8.892;2023-06-24T13:22:18;97416.78;;;43.02;12.65
31595;BME280;18200;48.726;8.892;2023-06-24T13:26:19;97407.84;;;42.34;12.97
31595;BME280;18200;48.726;8.892;2023-06-24T13:30:19;97408.38;;;39.88;14.52
31595;BME280;18200;48.726;8.892;2023-06-24T13:34:19;97412.78;;;42.41;12.63
31595;BME280;18200;48.726;8.892;2023-06-24T13:38:20;97401.47;;;42.90;12.64
31595;BME280;18200;48.726;8.892;2023-06-24T13:42:20;97408.91;;;43.08;12.80
31595;BME280;18200;48.726;8.892;2023-06-24T13:46:21;97399.00;;;43.30;12.71
31595;BME280;18200;48.726;8.892;2023-06-24T13:50:21;97396.97;;;43.38;12.47
31595;BME280;18200;48.726;8.892;2023-06-24T13:54:21;97398.91;;;41.82;14.30
31595;BME280;18200;48.726;8.892;2023-06-24T13:58:22;97400.38;;;42.44;13.43
31595;BME280;18200;48.726;8.892;2023-06-24T14:02:22;97394.63;;;43.72;12.82
31595;BME280;18200;48.726;8.892;2023-06-24T14:06:24;97392.91;;;41.85;13.30
31595;BME280;18200;48.726;8.892;2023-06-24T14:10:24;97388.19;;;39.71;14.75
31595;BME280;18200;48.726;8.892;2023-06-24T14:14:25;97376.25;;;40.67;13.96
31595;BME280;18200;48.726;8.892;2023-06-24T14:18:25;97378.34;;;40.09;14.50
31595;BME280;18200;48.726;8.892;2023-06-24T14:22:26;97384.94;;;43.02;12.61
31595;BME280;18200;48.726;8.892;2023-06-24T14:26:26;97375.28;;;41.38;13.94
31595;BME280;18200;48.726;8.892;2023-06-24T14:30:26;97375.84;;;41.91;13.30
31595;BME280;18200;48.726;8.892;2023-06-24T14:34:27;97365.81;;;40.23;14.33
31595;BME280;18200;48.726;8.892;2023-06-24T14:38:29;97367.81;;;40.54;14.04
31595;BME280;18200;48.726;8.892;2023-06-24T14:42:30;97363.91;;;39.17;15.21
31595;BME280;18200;48.726;8.892;2023-06-24T14:46:30;97357.16;;;40.73;14.05
31595;BME280;18200;48.726;8.892;2023-06-24T14:50:30;97348.63;;;39.95;14.48
31595;BME280;18200;48.726;8.892;2023-06-24T14:54:31;97345.22;;;41.61;13.67
31595;BME280;18200;48.726;8.892;2023-06-24T14:58:31;97350.34;;;42.88;12.44
31595;BME280;18200;48.726;8.892;2023-06-24T15:02:31;97347.78;;;43.71;12.68
31595;BME280;18200;48.726;8.892;2023-06-24T15:06:32;97340.59;;;42.61;13.66
31595;BME280;18200;48.726;8.892;2023-06-24T15:10:32;97340.16;;;43.44;12.86
31595;BME280;18200;48.726;8.892;2023-06-24T15:14:33;97336.03;;;43.52;12.78
31595;BME280;18200;48.726;8.892;2023-06-24T15:18:33;97325.50;;;42.59;13.52
31595;BME280;18200;48.726;8.892;2023-06-24T15:22:33;97326.59;;;43.57;13.03
31595;BME280;18200;48.726;8.892;2023-06-24T15:26:34;97325.28;;;42.57;13.39
31595;BME280;18200;48.726;8.892;2023-06-24T15:30:34;97321.50;;;44.24;12.11
31595;BME280;18200;48.726;8.892;2023-06-24T15:34:35;97321.59;;;43.12;12.97
31595;BME280;18200;48.726;8.892;2023-06-24T15:38:35;97319.13;;;41.27;14.85
31595;BME280;18200;48.726;8.892;2023-06-24T15:42:35;97318.28;;;42.50;14.30
31595;BME280;18200;48.726;8.892;2023-06-24T15:46:37;97303.75;;;39.71;16.50
31595;BME280;18200;48.726;8.892;2023-06-24T15:50:39;97302.72;;;40.00;16.07
31595;BME280;18200;48.726;8.892;2023-06-24T15:54:39;97302.06;;;43.52;13.60
31595;BME280;18200;48.726;8.892;2023-06-24T15:58:39;97313.63;;;45.57;12.75
31595;BME280;18200;48.726;8.892;2023-06-24T16:02:40;97300.50;;;45.93;11.93
31595;BME280;18200;48.726;8.892;2023-06-24T16:06:41;97306.44;;;42.95;13.48
31595;BME280;18200;48.726;8.892;2023-06-24T16:10:41;97290.50;;;42.77;13.75
31595;BME280;18200;48.726;8.892;2023-06-24T16:14:41;97291.31;;;44.81;12.87
31595;BME280;18200;48.726;8.892;2023-06-24T16:18:42;97287.34;;;43.91;13.16
31595;BME280;18200;48.726;8.892;2023-06-24T16:22:43;97292.16;;;43.15;13.94
31595;BME280;18200;48.726;8.892;2023-06-24T16:26:44;97281.19;;;44.63;13.05
31595;BME280;18200;48.726;8.892;2023-06-24T16:30:44;97267.66;;;41.34;15.21
31595;BME280;18200;48.726;8.892;2023-06-24T16:34:45;97282.44;;;38.93;16.82
31595;BME280;18200;48.726;8.892;2023-06-24T16:38:45;97278.94;;;43.18;13.61
31595;BME280;18200;48.726;8.892;2023-06-24T16:42:45;97281.97;;;43.20;14.02
31595;BME280;18200;48.726;8.892;2023-06-24T16:46:46;97280.50;;;43.34;13.59
31595;BME280;18200;48.726;8.892;2023-06-24T16:50:46;97277.59;;;45.34;12.44
31595;BME280;18200;48.726;8.892;2023-06-24T16:54:46;97270.16;;;43.44;13.45
31595;BME280;18200;48.726;8.892;2023-06-24T16:58:47;97275.66;;;43.80;13.35
31595;BME280;18200;48.726;8.892;2023-06-24T17:02:48;97268.78;;;43.22;13.86
31595;BME280;18200;48.726;8.892;2023-06-24T17:06:48;97266.38;;;41.84;14.41
31595;BME280;18200;48.726;8.892;2023-06-24T17:10:48;97260.63;;;38.80;16.78
31595;BME280;18200;48.726;8.892;2023-06-24T17:14:49;97261.09;;;40.71;15.53
31595;BME280;18200;48.726;8.892;2023-06-24T17:18:49;97265.50;;;41.47;15.12
31595;BME280;18200;48.726;8.892;2023-06-24T17:22:50;97263.16;;;43.45;13.74
31595;BME280;18200;48.726;8.892;2023-06-24T17:26:50;97256.59;;;42.84;14.07
31595;BME280;18200;48.726;8.892;2023-06-24T17:30:50;97247.69;;;43.39;13.53
31595;BME280;18200;48.726;8.892;2023-06-24T17:34:51;97252.06;;;40.13;16.26
31595;BME280;18200;48.726;8.892;2023-06-24T17:38:51;97256.28;;;42.95;14.49
31595;BME280;18200;48.726;8.892;2023-06-24T17:42:52;97260.50;;;40.26;16.32
31595;BME280;18200;48.726;8.892;2023-06-24T17:46:54;97263.72;;;42.34;14.74
31595;BME280;18200;48.726;8.892;2023-06-24T17:50:54;97258.41;;;42.03;14.69
31595;BME280;18200;48.726;8.892;2023-06-24T17:54:55;97247.88;;;39.30;16.95
31595;BME280;18200;48.726;8.892;2023-06-24T17:58:55;97254.78;;;40.32;16.28
31595;BME280;18200;48.726;8.892;2023-06-24T18:02:55;97250.28;;;39.84;16.73
31595;BME280;18200;48.726;8.892;2023-06-24T18:06:56;97249.66;;;39.78;17.00
31595;BME280;18200;48.726;8.892;2023-06-24T18:10:56;97250.88;;;39.19;17.03
31595;BME280;18200;48.726;8.892;2023-06-24T18:14:57;97256.97;;;40.72;16.05
31595;BME280;18200;48.726;8.892;2023-06-24T18:18:57;97253.09;;;39.71;16.71
31595;BME280;18200;48.726;8.892;2023-06-24T18:22:57;97252.47;;;39.78;16.94
31595;BME280;18200;48.726;8.892;2023-06-24T18:26:58;97255.31;;;41.24;15.67
31595;BME280;18200;48.726;8.892;2023-06-24T18:30:58;97249.69;;;41.24;15.70
31595;BME280;18200;48.726;8.892;2023-06-24T18:34:58;97245.00;;;39.35;17.21
31595;BME280;18200;48.726;8.892;2023-06-24T18:38:59;97242.59;;;39.71;16.92
31595;BME280;18200;48.726;8.892;2023-06-24T18:42:59;97240.78;;;39.87;17.27
31595;BME280;18200;48.726;8.892;2023-06-24T18:46:59;97238.19;;;40.02;16.99
31595;BME280;18200;48.726;8.892;2023-06-24T18:51:00;97240.06;;;39.99;17.17
31595;BME280;18200;48.726;8.892;2023-06-24T18:55:00;97247.03;;;39.03;17.83
31595;BME280;18200;48.726;8.892;2023-06-24T18:59:01;97238.22;;;38.94;18.32
31595;BME280;18200;48.726;8.892;2023-06-24T19:03:01;97240.34;;;39.96;17.15
31595;BME280;18200;48.726;8.892;2023-06-24T19:07:01;97243.50;;;39.47;18.24
31595;BME280;18200;48.726;8.892;2023-06-24T19:11:02;97244.97;;;38.85;18.93
31595;BME280;18200;48.726;8.892;2023-06-24T19:15:02;97244.75;;;39.65;18.13
31595;BME280;18200;48.726;8.892;2023-06-24T19:19:03;97240.44;;;39.32;18.32
31595;BME280;18200;48.726;8.892;2023-06-24T19:23:05;97234.25;;;39.66;18.13
31595;BME280;18200;48.726;8.892;2023-06-24T19:27:05;97240.97;;;39.63;18.10
31595;BME280;18200;48.726;8.892;2023-06-24T19:31:06;97237.75;;;39.72;18.56
31595;BME280;18200;48.726;8.892;2023-06-24T19:35:06;97235.34;;;39.63;17.96
31595;BME280;18200;48.726;8.892;2023-06-24T19:39:07;97242.91;;;39.81;18.30
31595;BME280;18200;48.726;8.892;2023-06-24T19:43:07;97241.00;;;39.89;18.08
31595;BME280;18200;48.726;8.892;2023-06-24T19:47:08;97247.91;;;39.88;18.29
31595;BME280;18200;48.726;8.892;2023-06-24T19:51:08;97247.69;;;39.86;18.30
31595;BME280;18200;48.726;8.892;2023-06-24T19:55:08;97251.78;;;39.59;18.45
31595;BME280;18200;48.726;8.892;2023-06-24T19:59:09;97249.53;;;39.38;18.95
31595;BME280;18200;48.726;8.892;2023-06-24T20:03:09;97256.13;;;39.09;19.79
31595;BME280;18200;48.726;8.892;2023-06-24T20:07:10;97268.88;;;38.36;19.80
31595;BME280;18200;48.726;8.892;2023-06-24T20:11:10;97266.91;;;38.49;20.15
31595;BME280;18200;48.726;8.892;2023-06-24T20:15:10;97259.84;;;37.70;20.13
31595;BME280;18200;48.726;8.892;2023-06-24T20:19:11;97255.22;;;38.27;20.34
31595;BME280;18200;48.726;8.892;2023-06-24T20:23:11;97253.41;;;38.29;20.39
31595;BME280;18200;48.726;8.892;2023-06-24T20:27:11;97251.19;;;38.17;20.76
31595;BME280;18200;48.726;8.892;2023-06-24T20:31:12;97254.34;;;37.59;21.27
31595;BME280;18200;48.726;8.892;2023-06-24T20:35:12;97251.31;;;37.22;21.32
31595;BME280;18200;48.726;8.892;2023-06-24T20:39:14;97249.31;;;36.82;22.13
31595;BME280;18200;48.726;8.892;2023-06-24T20:43:15;97243.75;;;36.71;22.33
31595;BME280;18200;48.726;8.892;2023-06-24T20:47:15;97253.81;;;36.44;22.65
31595;BME280;18200;48.726;8.892;2023-06-24T20:51:16;97252.50;;;36.50;22.15
31595;BME280;18200;48.726;8.892;2023-06-24T20:55:17;97251.31;;;36.35;22.73
31595;BME280;18200;48.726;8.892;2023-06-24T20:59:17;97254.72;;;35.89;23.48
31595;BME280;18200;48.726;8.892;2023-06-24T21:03:18;97245.06;;;36.01;23.32
31595;BME280;18200;48.726;8.892;2023-06-24T21:07:18;97247.56;;;36.10;22.74
31595;BME280;18200;48.726;8.892;2023-06-24T21:11:18;97243.56;;;35.78;24.08
31595;BME280;18200;48.726;8.892;2023-06-24T21:15:20;97241.97;;;34.55;25.36
31595;BME280;18200;48.726;8.892;2023-06-24T21:19:21;97238.94;;;34.64;25.08
31595;BME280;18200;48.726;8.892;2023-06-24T21:23:21;97245.09;;;35.01;24.72
31595;BME280;18200;48.726;8.892;2023-06-24T21:27:21;97245.28;;;34.70;24.75